Provincetown III — WDB8185 — position and weather

sailwx.info

Track history (hours):
 
Tides and Currents Weather Stations Pressure Air Temp Water Temp Dewpoint Dewpoint Depression Visibility Wind Speed Wind Dir Waves Ship Positions

Provincetown III

Owner: MYSTIC FERRY LEASING LLC, BOSTON, MA. More information available from US FCC via Universal Licensing System and Coast Guard Vessel Documentation Center.

Last reported at 2017-Feb-21 18:34 UTC. Time now 2017-Feb-21 19:06 UTC.
Position N 18°23' W 064°39'.

Length 30 m; draft 2 m.

Type: Passenger vessel. MMSI: 366954420.

Date/timePositionNaut miles runAvg speedWind from/ knotsBaromVisibWave heightAir tempDewpointWater temp
2017-Feb-21 18:34N 18°23' W 064°39'6 3.2
2017-Feb-21 16:34N 18°22' W 064°46'4 2.1
2017-Feb-21 14:34N 18°20' W 064°49'1311.9
2017-Feb-21 13:30N 18°25' W 064°37'12 6.1
2017-Feb-21 11:34N 18°20' W 064°48'12 0.8
2017-Feb-20 21:15N 18°25' W 064°37'1623.5
2017-Feb-20 20:34N 18°18' W 064°52'0 0.3
2017-Feb-20 19:17N 18°18' W 064°53'7 2.8
2017-Feb-20 16:33N 18°22' W 064°46'4 1.8
2017-Feb-20 14:33N 18°20' W 064°49'1210.0
2017-Feb-20 13:24N 18°24' W 064°38'13 6.9
2017-Feb-20 11:33N 18°19' W 064°50'9 0.6
2017-Feb-19 21:33N 18°23' W 064°41'9 4.7
2017-Feb-19 19:34N 18°19' W 064°50'1110.8
2017-Feb-19 18:33N 18°23' W 064°40'10 5.0
2017-Feb-19 16:34N 18°19' W 064°50'1212.0
2017-Feb-19 15:32N 18°24' W 064°38'11 5.5
2017-Feb-19 13:34N 18°20' W 064°48'12 0.7
2017-Feb-18 21:20N 18°25' W 064°37'16 7.9
2017-Feb-18 19:15N 18°18' W 064°52'6 2.3
2017-Feb-18 16:34N 18°22' W 064°47'0 0.1
2017-Feb-18 14:33N 18°21' W 064°47'9 9.1
2017-Feb-18 13:32N 18°24' W 064°38'13 6.5
2017-Feb-18 11:33N 18°19' W 064°50'14 1.0
2017-Feb-17 21:10N 18°25' W 064°37'1523.7
2017-Feb-17 20:33N 18°19' W 064°51'3 2.1
2017-Feb-17 19:16N 18°18' W 064°54'1723.4
2017-Feb-17 18:33N 18°24' W 064°37'9 4.6
2017-Feb-17 16:33N 18°22' W 064°46'6 3.0
2017-Feb-17 14:34N 18°18' W 064°51'1412.1
2017-Feb-17 13:23N 18°24' W 064°37'11 6.0
2017-Feb-17 11:34N 18°20' W 064°48'12 0.8
2017-Feb-16 21:14N 18°25' W 064°37'1623.2
2017-Feb-16 20:33N 18°18' W 064°52'1 0.6
2017-Feb-16 19:15N 18°18' W 064°53'1623.5
2017-Feb-16 18:33N 18°24' W 064°37'9 4.6
2017-Feb-16 16:33N 18°22' W 064°46'3 1.4
2017-Feb-16 14:33N 18°20' W 064°49'1212.1
2017-Feb-16 13:32N 18°25' W 064°37'12 6.0
2017-Feb-16 11:33N 18°20' W 064°48'12 0.8
2017-Feb-15 21:12N 18°25' W 064°37'1523.3
2017-Feb-15 20:33N 18°18' W 064°51'5 5.2
2017-Feb-15 19:33N 18°20' W 064°56'10 3.2
2017-Feb-15 16:33N 18°22' W 064°46'4 2.0
2017-Feb-15 14:33N 18°19' W 064°50'1210.9
2017-Feb-15 13:25N 18°24' W 064°37'13 6.7
2017-Feb-15 11:33N 18°19' W 064°50'13 0.9
2017-Feb-14 21:09N 18°25' W 064°37'1423.7
2017-Feb-14 20:33N 18°19' W 064°50'3 1.9
2017-Feb-14 19:15N 18°18' W 064°53'1623.6
2017-Feb-14 18:33N 18°24' W 064°37'8 4.0
2017-Feb-14 16:33N 18°23' W 064°45'6 3.1
2017-Feb-14 14:33N 18°19' W 064°50'1412.5
2017-Feb-14 13:25N 18°25' W 064°37'13 7.0
2017-Feb-14 11:33N 18°20' W 064°49'12 0.8
2017-Feb-13 21:13N 18°24' W 064°38'1523.3
2017-Feb-13 20:33N 18°18' W 064°52'0 0.2
2017-Feb-13 19:10N 18°18' W 064°53'1524.0
2017-Feb-13 18:33N 18°23' W 064°38'7 3.5
2017-Feb-13 16:33N 18°22' W 064°46'4 2.0
2017-Feb-13 14:33N 18°20' W 064°49'1110.1
2017-Feb-13 13:26N 18°24' W 064°38'12 6.3
2017-Feb-13 11:33N 18°20' W 064°49'13 0.9
2017-Feb-12 21:31N 18°25' W 064°37'16 7.8
2017-Feb-12 19:24N 18°18' W 064°52'1617.5
2017-Feb-12 18:28N 18°25' W 064°37'12 6.5
2017-Feb-12 16:33N 18°20' W 064°49'1110.6
2017-Feb-12 15:29N 18°24' W 064°37'11 5.5
2017-Feb-12 13:33N 18°21' W 064°48'11 0.7
2017-Feb-11 21:14N 18°25' W 064°37'1623.4
2017-Feb-11 20:33N 18°18' W 064°52'1 0.6
2017-Feb-11 19:15N 18°18' W 064°52'1623.7
2017-Feb-11 18:34N 18°25' W 064°37'  
Track history (hours):
 
Tides and Currents Weather Stations Pressure Air Temp Water Temp Dewpoint Dewpoint Depression Visibility Wind Speed Wind Dir Waves Ship Positions

Provincetown III

Owner: MYSTIC FERRY LEASING LLC, BOSTON, MA. More information available from US FCC via Universal Licensing System and Coast Guard Vessel Documentation Center.

Last reported at 2017-Feb-21 18:34 UTC. Time now 2017-Feb-21 19:06 UTC.
Position N 18°23' W 064°39'.

Length 30 m; draft 2 m.

Type: Passenger vessel. MMSI: 366954420.

Date/timePositionNaut miles runAvg speedWind from/ knotsBaromVisibWave heightAir tempDewpointWater temp
2017-Feb-21 18:34N 18°23' W 064°39'6 3.2
2017-Feb-21 16:34N 18°22' W 064°46'4 2.1
2017-Feb-21 14:34N 18°20' W 064°49'1311.9
2017-Feb-21 13:30N 18°25' W 064°37'12 6.1
2017-Feb-21 11:34N 18°20' W 064°48'12 0.8
2017-Feb-20 21:15N 18°25' W 064°37'1623.5
2017-Feb-20 20:34N 18°18' W 064°52'0 0.3
2017-Feb-20 19:17N 18°18' W 064°53'7 2.8
2017-Feb-20 16:33N 18°22' W 064°46'4 1.8
2017-Feb-20 14:33N 18°20' W 064°49'1210.0
2017-Feb-20 13:24N 18°24' W 064°38'13 6.9
2017-Feb-20 11:33N 18°19' W 064°50'9 0.6
2017-Feb-19 21:33N 18°23' W 064°41'9 4.7
2017-Feb-19 19:34N 18°19' W 064°50'1110.8
2017-Feb-19 18:33N 18°23' W 064°40'10 5.0
2017-Feb-19 16:34N 18°19' W 064°50'1212.0
2017-Feb-19 15:32N 18°24' W 064°38'11 5.5
2017-Feb-19 13:34N 18°20' W 064°48'12 0.7
2017-Feb-18 21:20N 18°25' W 064°37'16 7.9
2017-Feb-18 19:15N 18°18' W 064°52'6 2.3
2017-Feb-18 16:34N 18°22' W 064°47'0 0.1
2017-Feb-18 14:33N 18°21' W 064°47'9 9.1
2017-Feb-18 13:32N 18°24' W 064°38'13 6.5
2017-Feb-18 11:33N 18°19' W 064°50'14 1.0
2017-Feb-17 21:10N 18°25' W 064°37'1523.7
2017-Feb-17 20:33N 18°19' W 064°51'3 2.1
2017-Feb-17 19:16N 18°18' W 064°54'1723.4
2017-Feb-17 18:33N 18°24' W 064°37'9 4.6
2017-Feb-17 16:33N 18°22' W 064°46'6 3.0
2017-Feb-17 14:34N 18°18' W 064°51'1412.1
2017-Feb-17 13:23N 18°24' W 064°37'11 6.0
2017-Feb-17 11:34N 18°20' W 064°48'12 0.8
2017-Feb-16 21:14N 18°25' W 064°37'1623.2
2017-Feb-16 20:33N 18°18' W 064°52'1 0.6
2017-Feb-16 19:15N 18°18' W 064°53'1623.5
2017-Feb-16 18:33N 18°24' W 064°37'9 4.6
2017-Feb-16 16:33N 18°22' W 064°46'3 1.4
2017-Feb-16 14:33N 18°20' W 064°49'1212.1
2017-Feb-16 13:32N 18°25' W 064°37'12 6.0
2017-Feb-16 11:33N 18°20' W 064°48'12 0.8
2017-Feb-15 21:12N 18°25' W 064°37'1523.3
2017-Feb-15 20:33N 18°18' W 064°51'5 5.2
2017-Feb-15 19:33N 18°20' W 064°56'10 3.2
2017-Feb-15 16:33N 18°22' W 064°46'4 2.0
2017-Feb-15 14:33N 18°19' W 064°50'1210.9
2017-Feb-15 13:25N 18°24' W 064°37'13 6.7
2017-Feb-15 11:33N 18°19' W 064°50'13 0.9
2017-Feb-14 21:09N 18°25' W 064°37'1423.7
2017-Feb-14 20:33N 18°19' W 064°50'3 1.9
2017-Feb-14 19:15N 18°18' W 064°53'1623.6
2017-Feb-14 18:33N 18°24' W 064°37'8 4.0
2017-Feb-14 16:33N 18°23' W 064°45'6 3.1
2017-Feb-14 14:33N 18°19' W 064°50'1412.5
2017-Feb-14 13:25N 18°25' W 064°37'13 7.0
2017-Feb-14 11:33N 18°20' W 064°49'12 0.8
2017-Feb-13 21:13N 18°24' W 064°38'1523.3
2017-Feb-13 20:33N 18°18' W 064°52'0 0.2
2017-Feb-13 19:10N 18°18' W 064°53'1524.0
2017-Feb-13 18:33N 18°23' W 064°38'7 3.5
2017-Feb-13 16:33N 18°22' W 064°46'4 2.0
2017-Feb-13 14:33N 18°20' W 064°49'1110.1
2017-Feb-13 13:26N 18°24' W 064°38'12 6.3
2017-Feb-13 11:33N 18°20' W 064°49'13 0.9
2017-Feb-12 21:31N 18°25' W 064°37'16 7.8
2017-Feb-12 19:24N 18°18' W 064°52'1617.5
2017-Feb-12 18:28N 18°25' W 064°37'12 6.5
2017-Feb-12 16:33N 18°20' W 064°49'1110.6
2017-Feb-12 15:29N 18°24' W 064°37'11 5.5
2017-Feb-12 13:33N 18°21' W 064°48'11 0.7
2017-Feb-11 21:14N 18°25' W 064°37'1623.4
2017-Feb-11 20:33N 18°18' W 064°52'1 0.6
2017-Feb-11 19:15N 18°18' W 064°52'1623.7
2017-Feb-11 18:34N 18°25' W 064°37'  

Dump ship's entire track history